Time;durP1;ratioP1;P1;durP2;ratioP2;P2;SDS_P1;SDS_P2;PMS_P1;PMS_P2;Temp;Humidity;BMP_temperature;BMP_pressure;BME280_temperature;BME280_humidity;BME280_pressure;Samples;Min_cycle;Max_cycle;Signal;HPM_P1;HPM_P2
2023/06/11 00:00:23;;;;;;;6.13;5.53;;;18.30;18.50;;;;;;5053818;28;20910;-68
2023/06/11 00:02:53;;;;;;;6.20;5.20;;;18.30;18.90;;;;;;5053576;28;20202;-68
2023/06/11 00:05:23;;;;;;;9.40;6.20;;;18.30;18.80;;;;;;5052806;28;20765;-68
2023/06/11 00:07:51;;;;;;;7.60;5.53;;;18.20;19.30;;;;;;5037944;28;20413;-68
2023/06/11 00:10:17;;;;;;;7.10;6.00;;;18.10;19.60;;;;;;5033781;28;20417;-68
2023/06/11 00:12:43;;;;;;;7.60;6.00;;;18.00;19.60;;;;;;5033487;28;20426;-68
2023/06/11 00:15:09;;;;;;;7.63;5.73;;;18.00;19.70;;;;;;5033723;28;20198;-68
2023/06/11 00:17:35;;;;;;;7.40;5.10;;;18.00;19.60;;;;;;5033552;28;20441;-68
2023/06/11 00:20:09;;;;;;;5.73;5.13;;;17.90;20.20;;;;;;5033733;28;20516;-68
2023/06/11 00:22:35;;;;;;;5.77;5.10;;;17.90;20.40;;;;;;5032330;28;20195;-68
2023/06/11 00:25:00;;;;;;;7.23;6.30;;;17.90;21.00;;;;;;5033571;28;20421;-68
2023/06/11 00:27:26;;;;;;;6.60;5.77;;;17.80;21.00;;;;;;5033396;28;20468;-67
2023/06/11 00:29:53;;;;;;;6.90;6.20;;;17.80;21.40;;;;;;5033472;28;20229;-68
2023/06/11 00:32:19;;;;;;;8.87;4.30;;;17.80;21.30;;;;;;5033103;28;20641;-68
2023/06/11 00:34:44;;;;;;;5.53;4.97;;;17.70;22.00;;;;;;5033360;28;20429;-68
2023/06/11 00:37:11;;;;;;;7.23;6.40;;;17.70;21.50;;;;;;5033165;28;20211;-68
2023/06/11 00:39:37;;;;;;;6.33;5.20;;;17.70;21.70;;;;;;5033277;28;20200;-69
2023/06/11 00:42:02;;;;;;;6.30;5.70;;;17.60;21.90;;;;;;5032725;28;20489;-68
2023/06/11 00:44:29;;;;;;;6.10;5.40;;;17.60;22.30;;;;;;5033378;28;20182;-68
2023/06/11 00:46:57;;;;;;;7.33;6.63;;;17.60;22.60;;;;;;5033107;28;20258;-68
2023/06/11 00:49:23;;;;;;;6.27;5.67;;;17.60;22.60;;;;;;5032974;28;20803;-68
2023/06/11 00:51:50;;;;;;;6.40;5.80;;;17.50;22.70;;;;;;5032789;28;20406;-68
2023/06/11 00:54:18;;;;;;;9.20;6.50;;;17.50;22.70;;;;;;5032883;28;20406;-68
2023/06/11 00:56:46;;;;;;;6.83;6.23;;;17.50;23.00;;;;;;5032721;28;20441;-69
2023/06/11 00:59:15;;;;;;;6.67;5.97;;;17.40;23.50;;;;;;5032913;28;20888;-68
2023/06/11 01:01:45;;;;;;;7.23;6.50;;;17.40;23.40;;;;;;5032517;28;20442;-68
2023/06/11 01:04:18;;;;;;;7.73;6.90;;;17.30;23.40;;;;;;5031525;28;20484;-68
2023/06/11 01:06:49;;;;;;;8.37;6.40;;;17.30;23.80;;;;;;5039480;28;20436;-68
2023/06/11 01:09:20;;;;;;;8.13;7.33;;;17.30;24.00;;;;;;5051240;28;20444;-69
2023/06/11 01:11:48;;;;;;;10.33;7.30;;;17.30;24.50;;;;;;5052204;28;20711;-68
2023/06/11 01:14:17;;;;;;;8.70;7.57;;;17.30;24.40;;;;;;5052512;28;20426;-68
2023/06/11 01:16:48;;;;;;;8.37;6.70;;;17.30;24.00;;;;;;5052369;28;20443;-68
2023/06/11 01:19:32;;;;;;;8.63;6.97;;;17.40;23.90;;;;;;5052426;28;20409;-69
2023/06/11 01:22:01;;;;;;;6.30;5.70;;;17.40;23.40;;;;;;5051997;28;20416;-68
2023/06/11 01:24:44;;;;;;;8.43;5.23;;;17.50;23.50;;;;;;5052453;28;20417;-68
2023/06/11 01:27:28;;;;;;;6.17;5.53;;;17.40;23.40;;;;;;5052338;28;20785;-68
2023/06/11 01:29:56;;;;;;;7.17;6.47;;;17.50;22.80;;;;;;5052192;28;20405;-69
2023/06/11 01:32:24;;;;;;;7.20;6.23;;;17.50;22.20;;;;;;5051903;28;20424;-69
2023/06/11 01:34:50;;;;;;;6.20;5.37;;;17.60;22.30;;;;;;5052263;28;20443;-69
2023/06/11 01:37:17;;;;;;;7.87;6.87;;;17.50;22.60;;;;;;5051947;28;20460;-68
2023/06/11 01:39:45;;;;;;;7.57;5.90;;;17.50;23.10;;;;;;5052127;28;20193;-69
2023/06/11 01:42:11;;;;;;;6.53;5.90;;;17.50;23.50;;;;;;5051652;28;20998;-68
2023/06/11 01:44:37;;;;;;;7.40;6.60;;;17.40;23.00;;;;;;5051902;28;20489;-68
2023/06/11 01:47:03;;;;;;;8.30;6.43;;;17.40;23.00;;;;;;5051859;28;20433;-69
2023/06/11 01:49:28;;;;;;;7.63;6.00;;;17.40;22.60;;;;;;5051951;28;20182;-68
2023/06/11 01:51:54;;;;;;;6.33;5.60;;;17.40;22.40;;;;;;5050410;28;20170;-69
2023/06/11 01:54:20;;;;;;;5.83;5.00;;;17.40;22.30;;;;;;5051965;28;20167;-69
2023/06/11 01:56:45;;;;;;;6.00;5.40;;;17.40;22.30;;;;;;5051761;28;21021;-68
2023/06/11 01:59:12;;;;;;;7.20;6.03;;;17.40;22.00;;;;;;5051799;28;20648;-68
2023/06/11 02:01:40;;;;;;;5.53;4.77;;;17.40;21.80;;;;;;5052040;28;20532;-69
2023/06/11 02:04:05;;;;;;;5.80;4.87;;;17.40;22.00;;;;;;5051704;28;20479;-68
2023/06/11 02:06:32;;;;;;;7.00;5.70;;;17.30;22.70;;;;;;5046559;28;20454;-69
2023/06/11 02:08:57;;;;;;;5.63;5.00;;;17.30;23.10;;;;;;5031765;28;20176;-69
2023/06/11 02:11:23;;;;;;;6.30;5.70;;;17.30;22.90;;;;;;5031738;28;20814;-69
2023/06/11 02:13:48;;;;;;;6.17;5.43;;;17.20;23.30;;;;;;5030239;28;20226;-69
2023/06/11 02:16:14;;;;;;;8.10;5.60;;;17.10;23.40;;;;;;5031615;28;20203;-68
2023/06/11 02:18:39;;;;;;;7.10;5.23;;;17.10;23.30;;;;;;5031684;28;20176;-68
2023/06/11 02:21:05;;;;;;;5.90;5.00;;;17.00;23.60;;;;;;5030441;28;20175;-69
2023/06/11 02:23:30;;;;;;;6.87;5.70;;;17.00;23.70;;;;;;5031169;28;20237;-69
2023/06/11 02:25:56;;;;;;;9.43;6.20;;;16.90;24.10;;;;;;5031634;28;20208;-68
2023/06/11 02:28:21;;;;;;;6.87;6.00;;;16.80;24.50;;;;;;5031561;28;20558;-68
2023/06/11 02:30:47;;;;;;;7.87;6.50;;;16.80;25.00;;;;;;5031675;28;20179;-71
2023/06/11 02:33:12;;;;;;;5.80;4.23;;;16.90;24.90;;;;;;5031283;28;20179;-68
2023/06/11 02:35:38;;;;;;;6.73;5.97;;;16.90;24.90;;;;;;5031278;28;20179;-68
2023/06/11 02:38:04;;;;;;;6.67;5.70;;;16.90;24.10;;;;;;5031403;28;20224;-68
2023/06/11 02:40:29;;;;;;;6.80;5.90;;;16.90;23.10;;;;;;5031610;28;20182;-68
2023/06/11 02:42:55;;;;;;;4.57;4.17;;;16.90;23.70;;;;;;5031072;28;20329;-68
2023/06/11 02:45:21;;;;;;;6.17;5.20;;;16.90;23.60;;;;;;5030641;28;20190;-68
2023/06/11 02:47:46;;;;;;;6.80;6.10;;;16.80;23.60;;;;;;5035337;28;20649;-68
2023/06/11 02:50:12;;;;;;;7.37;5.63;;;16.80;24.10;;;;;;5035206;28;20475;-68
2023/06/11 02:52:38;;;;;;;6.07;5.10;;;16.70;24.30;;;;;;5034849;28;20179;-68
2023/06/11 02:55:04;;;;;;;7.50;6.70;;;16.70;24.80;;;;;;5035662;28;20177;-68
2023/06/11 02:57:29;;;;;;;7.17;5.67;;;16.70;25.10;;;;;;5034958;28;20195;-68
2023/06/11 02:59:55;;;;;;;6.07;5.33;;;16.60;25.40;;;;;;5033810;28;20957;-68
2023/06/11 03:02:20;;;;;;;7.93;5.87;;;16.70;25.70;;;;;;5034788;28;20580;-68
2023/06/11 03:04:46;;;;;;;6.03;5.23;;;16.60;26.40;;;;;;5034868;28;20633;-68
2023/06/11 03:07:11;;;;;;;5.87;5.13;;;16.60;25.90;;;;;;5045657;28;20194;-68
2023/06/11 03:09:37;;;;;;;7.07;5.60;;;16.50;26.80;;;;;;5054813;28;20758;-68
2023/06/11 03:12:03;;;;;;;6.73;6.00;;;16.50;27.10;;;;;;5054523;28;20178;-68
2023/06/11 03:14:28;;;;;;;6.83;5.53;;;16.50;27.00;;;;;;5054743;28;20236;-68
2023/06/11 03:16:54;;;;;;;6.23;5.40;;;16.40;27.00;;;;;;5054620;28;20929;-68
2023/06/11 03:19:20;;;;;;;6.73;4.97;;;16.40;27.00;;;;;;5054614;28;20177;-68
2023/06/11 03:21:45;;;;;;;7.17;5.50;;;16.40;27.00;;;;;;5054306;28;20567;-68
2023/06/11 03:24:11;;;;;;;8.40;5.93;;;16.40;27.00;;;;;;5054585;28;20529;-69
2023/06/11 03:26:36;;;;;;;7.13;5.80;;;16.40;28.00;;;;;;5054374;28;20686;-68
2023/06/11 03:29:02;;;;;;;6.30;5.70;;;16.30;28.70;;;;;;5054526;28;20253;-68
2023/06/11 03:31:28;;;;;;;7.20;5.90;;;16.30;28.10;;;;;;5052922;28;20184;-67
2023/06/11 03:33:53;;;;;;;6.60;5.83;;;16.40;28.50;;;;;;5054250;28;20523;-69
2023/06/11 03:36:19;;;;;;;6.53;5.90;;;16.40;28.10;;;;;;5054151;28;20219;-69
2023/06/11 03:38:44;;;;;;;7.50;6.77;;;16.40;28.60;;;;;;5054184;28;20187;-68
2023/06/11 03:41:10;;;;;;;5.80;5.20;;;16.40;28.70;;;;;;5054070;28;20189;-68
2023/06/11 03:43:36;;;;;;;6.57;5.80;;;16.40;28.30;;;;;;5053961;28;20687;-68
2023/06/11 03:46:02;;;;;;;6.23;5.50;;;16.40;28.70;;;;;;5054136;28;20425;-69
2023/06/11 03:48:27;;;;;;;9.00;5.87;;;16.50;28.80;;;;;;5054029;28;20170;-68
2023/06/11 03:50:53;;;;;;;7.13;6.43;;;16.60;28.90;;;;;;5054106;28;20203;-69
2023/06/11 03:53:18;;;;;;;7.77;6.97;;;16.70;28.60;;;;;;5053748;28;20181;-68
2023/06/11 03:55:44;;;;;;;7.60;6.60;;;16.80;28.10;;;;;;5052537;28;20225;-69
2023/06/11 03:58:09;;;;;;;7.87;7.17;;;16.90;28.10;;;;;;5053905;28;20187;-68
2023/06/11 04:00:35;;;;;;;8.07;6.73;;;16.90;27.50;;;;;;5052689;28;20179;-68
2023/06/11 04:03:00;;;;;;;7.77;6.60;;;16.90;27.30;;;;;;5053411;28;20213;-69
2023/06/11 04:05:26;;;;;;;9.30;6.10;;;17.00;27.40;;;;;;5053640;28;20183;-68
2023/06/11 04:07:51;;;;;;;7.93;6.00;;;17.00;27.40;;;;;;5037429;28;20191;-69
2023/06/11 04:10:17;;;;;;;8.30;6.90;;;17.00;27.40;;;;;;5033687;28;20672;-69
2023/06/11 04:12:42;;;;;;;8.10;6.63;;;17.10;27.10;;;;;;5033503;28;20183;-68
2023/06/11 04:15:08;;;;;;;6.87;6.17;;;17.20;26.20;;;;;;5033769;28;20206;-69
2023/06/11 04:17:34;;;;;;;6.83;6.13;;;17.30;25.70;;;;;;5033593;28;20191;-69
2023/06/11 04:20:00;;;;;;;7.83;6.30;;;17.40;25.30;;;;;;5033656;28;20419;-69
2023/06/11 04:22:26;;;;;;;7.10;6.37;;;17.40;24.70;;;;;;5033394;28;20493;-69
2023/06/11 04:24:53;;;;;;;7.27;6.47;;;17.40;24.10;;;;;;5033362;28;20422;-69
2023/06/11 04:27:20;;;;;;;6.93;6.23;;;17.50;23.50;;;;;;5033457;28;20742;-69
2023/06/11 04:29:48;;;;;;;7.63;6.87;;;17.60;23.60;;;;;;5033382;28;20438;-69
2023/06/11 04:32:16;;;;;;;7.20;6.50;;;17.70;22.80;;;;;;5031817;28;20430;-69
2023/06/11 04:34:43;;;;;;;6.73;6.13;;;17.80;22.40;;;;;;5033243;28;20525;-69
2023/06/11 04:37:09;;;;;;;6.67;6.00;;;17.80;22.10;;;;;;5033627;28;20446;-68
2023/06/11 04:39:35;;;;;;;7.07;6.33;;;17.90;21.30;;;;;;5033291;28;20992;-68
2023/06/11 04:42:02;;;;;;;5.80;5.00;;;17.90;20.70;;;;;;5032897;28;20176;-68
2023/06/11 04:44:28;;;;;;;7.93;7.13;;;18.00;20.20;;;;;;5033223;28;20406;-68
2023/06/11 04:46:57;;;;;;;6.13;5.53;;;18.10;19.60;;;;;;5033021;28;20434;-68
2023/06/11 04:49:23;;;;;;;6.40;5.40;;;18.20;19.30;;;;;;5032979;28;20421;-68
2023/06/11 04:51:52;;;;;;;7.63;6.20;;;18.20;18.90;;;;;;5032693;28;20481;-69
2023/06/11 04:54:21;;;;;;;6.80;6.10;;;18.30;18.70;;;;;;5032864;28;20414;-70
2023/06/11 04:56:47;;;;;;;8.23;6.13;;;18.40;18.40;;;;;;5032914;28;20467;-69
2023/06/11 04:59:12;;;;;;;8.43;6.10;;;18.50;18.50;;;;;;5032841;28;20474;-69
2023/06/11 05:01:46;;;;;;;10.83;5.93;;;18.60;18.30;;;;;;5032561;28;20421;-69
2023/06/11 05:04:13;;;;;;;6.47;5.80;;;18.70;18.10;;;;;;5050686;28;20203;-69
2023/06/11 05:06:44;;;;;;;6.90;5.20;;;18.70;17.30;;;;;;5052495;28;20523;-69
2023/06/11 05:09:11;;;;;;;6.93;6.27;;;18.80;17.40;;;;;;5052320;28;20413;-68
2023/06/11 05:11:36;;;;;;;6.50;5.90;;;18.90;17.00;;;;;;5052381;28;20463;-69
2023/06/11 05:14:02;;;;;;;7.83;5.97;;;19.00;17.00;;;;;;5052641;28;20413;-68
2023/06/11 05:16:28;;;;;;;6.70;5.60;;;19.10;16.00;;;;;;5052704;28;20194;-67
2023/06/11 05:18:54;;;;;;;7.17;6.47;;;19.10;15.90;;;;;;5052461;28;20166;-68
2023/06/11 05:21:19;;;;;;;8.33;7.00;;;19.10;16.40;;;;;;5052403;28;20924;-68
2023/06/11 05:23:45;;;;;;;7.93;5.30;;;19.30;16.10;;;;;;5052130;28;20202;-69
2023/06/11 05:26:14;;;;;;;7.30;5.83;;;19.30;15.40;;;;;;5052273;28;20195;-69
2023/06/11 05:28:40;;;;;;;7.27;5.50;;;19.40;15.00;;;;;;5052281;28;20171;-67
2023/06/11 05:31:06;;;;;;;5.30;4.80;;;19.50;14.30;;;;;;5052251;28;20474;-68
2023/06/11 05:33:31;;;;;;;5.10;4.60;;;19.50;14.20;;;;;;5051912;28;20418;-67
2023/06/11 05:35:57;;;;;;;6.80;5.27;;;19.70;14.00;;;;;;5051900;28;20441;-70
2023/06/11 05:38:24;;;;;;;7.30;5.07;;;19.90;13.60;;;;;;5052236;28;20189;-70
2023/06/11 05:40:50;;;;;;;4.80;4.20;;;20.10;12.20;;;;;;5052252;28;20175;-69
2023/06/11 05:43:15;;;;;;;4.67;4.20;;;20.60;11.70;;;;;;5051959;28;20468;-69
2023/06/11 05:45:48;;;;;;;5.73;5.23;;;21.50;9.50;;;;;;5052191;28;20594;-69
2023/06/11 05:48:15;;;;;;;5.07;4.60;;;22.20;7.20;;;;;;5052051;28;20181;-69
2023/06/11 05:50:40;;;;;;;5.73;5.20;;;22.60;6.20;;;;;;5052075;28;20416;-69
2023/06/11 05:53:07;;;;;;;5.20;4.70;;;23.50;4.40;;;;;;5051792;28;20409;-68
2023/06/11 05:55:33;;;;;;;6.10;5.50;;;25.10;1.70;;;;;;5051879;28;20174;-68
2023/06/11 05:57:59;;;;;;;7.30;6.60;;;27.40;1.00;;;;;;5051940;28;20421;-68
2023/06/11 06:00:25;;;;;;;6.73;6.07;;;27.30;1.00;;;;;;5052081;28;20414;-69
2023/06/11 06:02:51;;;;;;;6.13;5.60;;;28.50;1.00;;;;;;5052172;28;20561;-69
2023/06/11 06:05:16;;;;;;;6.67;6.00;;;29.20;1.00;;;;;;5052445;28;20504;-70
2023/06/11 06:07:42;;;;;;;6.60;6.10;;;31.00;1.00;;;;;;5036852;28;20195;-70
2023/06/11 06:10:08;;;;;;;7.47;6.77;;;33.70;1.00;;;;;;5032086;28;20178;-69
2023/06/11 06:12:33;;;;;;;6.40;5.80;;;35.10;1.00;;;;;;5031840;28;20175;-69
2023/06/11 06:14:59;;;;;;;6.80;6.27;;;34.70;1.00;;;;;;5031995;28;20414;-69
2023/06/11 06:17:25;;;;;;;7.63;6.93;;;34.40;1.00;;;;;;5031890;28;20191;-70
2023/06/11 06:19:50;;;;;;;6.47;6.00;;;34.40;1.00;;;;;;5031937;28;20421;-70
2023/06/11 06:22:18;;;;;;;7.27;6.67;;;35.10;1.00;;;;;;5035166;28;20229;-70
2023/06/11 06:24:43;;;;;;;7.27;6.57;;;33.60;1.00;;;;;;5035956;28;20178;-69
2023/06/11 06:27:09;;;;;;;7.57;6.87;;;32.70;1.00;;;;;;5035893;28;20425;-70
2023/06/11 06:29:38;;;;;;;7.20;6.77;;;31.90;1.00;;;;;;5036392;28;20171;-70
2023/06/11 06:32:08;;;;;;;6.90;6.40;;;30.50;1.00;;;;;;5035398;28;20804;-69
2023/06/11 06:34:34;;;;;;;6.97;6.37;;;29.60;1.00;;;;;;5035794;28;20422;-69
2023/06/11 06:37:00;;;;;;;7.70;7.00;;;31.10;1.00;;;;;;5035367;28;20820;-69
2023/06/11 06:39:26;;;;;;;6.80;6.30;;;32.80;1.00;;;;;;5035639;28;20422;-69
2023/06/11 06:41:51;;;;;;;6.90;6.40;;;34.30;1.00;;;;;;5035361;28;20436;-67
2023/06/11 06:44:17;;;;;;;7.43;6.77;;;35.80;1.00;;;;;;5035709;28;20210;-69
2023/06/11 06:46:43;;;;;;;9.80;7.60;;;36.10;1.00;;;;;;5034493;28;20202;-70
2023/06/11 06:49:08;;;;;;;7.10;6.53;;;35.80;1.00;;;;;;5035357;28;20194;-71
2023/06/11 06:51:36;;;;;;;6.10;5.70;;;35.60;1.00;;;;;;5035047;28;20183;-74
2023/06/11 06:54:02;;;;;;;7.57;7.07;;;35.80;1.00;;;;;;5035398;28;20171;-70
2023/06/11 06:56:27;;;;;;;6.93;6.47;;;36.60;1.00;;;;;;5035333;28;20491;-70
2023/06/11 06:58:53;;;;;;;7.20;6.60;;;37.10;1.00;;;;;;5035287;28;20179;-70
2023/06/11 07:01:18;;;;;;;6.87;6.40;;;36.80;1.00;;;;;;5035317;28;20522;-70
2023/06/11 07:03:44;;;;;;;7.20;6.70;;;37.10;1.00;;;;;;5034865;28;20260;-70
2023/06/11 07:06:10;;;;;;;7.37;6.87;;;38.20;1.00;;;;;;5037426;28;20719;-71
2023/06/11 07:08:38;;;;;;;6.93;6.53;;;39.50;1.00;;;;;;5054905;28;20185;-70
2023/06/11 07:11:04;;;;;;;7.37;6.87;;;39.40;1.00;;;;;;5051304;28;20244;-70
2023/06/11 07:13:29;;;;;;;7.70;7.00;;;39.40;1.00;;;;;;5054409;28;20907;-69
2023/06/11 07:15:55;;;;;;;7.13;6.63;;;38.00;1.00;;;;;;5054728;28;20198;-70
2023/06/11 07:18:21;;;;;;;7.53;7.03;;;37.20;1.00;;;;;;5054694;28;20189;-69
2023/06/11 07:20:48;;;;;;;6.67;6.17;;;37.40;1.00;;;;;;5054538;28;20182;-70
2023/06/11 07:23:14;;;;;;;8.17;7.67;;;37.40;1.00;;;;;;5052992;28;20461;-71
2023/06/11 07:25:43;;;;;;;7.27;6.77;;;36.50;1.00;;;;;;5054540;28;20504;-68
2023/06/11 07:28:08;;;;;;;8.30;7.70;;;35.90;1.00;;;;;;5054420;28;20198;-70
2023/06/11 07:30:34;;;;;;;6.87;6.40;;;35.30;1.00;;;;;;5054375;28;20444;-70
2023/06/11 07:33:00;;;;;;;8.13;7.30;;;34.70;1.00;;;;;;5053717;28;20182;-70
2023/06/11 07:35:26;;;;;;;8.50;7.90;;;35.40;1.00;;;;;;5054277;28;20178;-69
2023/06/11 07:37:52;;;;;;;6.80;6.40;;;35.40;1.00;;;;;;5054374;28;20277;-70
2023/06/11 07:40:19;;;;;;;8.50;7.80;;;36.60;1.00;;;;;;5054313;28;20456;-71
2023/06/11 07:42:45;;;;;;;7.23;6.63;;;35.80;1.00;;;;;;5053720;28;20460;-71
2023/06/11 07:45:12;;;;;;;6.50;6.10;;;37.00;1.00;;;;;;5054442;28;20417;-70
2023/06/11 07:47:38;;;;;;;7.57;7.07;;;37.00;1.00;;;;;;5054007;28;20452;-70
2023/06/11 07:50:04;;;;;;;7.27;6.73;;;36.90;1.00;;;;;;5054026;28;20922;-70
2023/06/11 07:52:30;;;;;;;7.57;7.07;;;37.90;1.00;;;;;;5053812;28;20190;-70
2023/06/11 07:54:56;;;;;;;7.80;7.30;;;38.70;1.00;;;;;;5053945;28;20417;-70
2023/06/11 07:57:22;;;;;;;7.03;6.60;;;37.20;1.00;;;;;;5053873;28;20252;-70
2023/06/11 07:59:48;;;;;;;6.70;6.10;;;37.40;1.00;;;;;;5053920;28;20421;-70
2023/06/11 08:02:14;;;;;;;7.60;7.00;;;36.90;1.00;;;;;;5053545;28;20178;-69
2023/06/11 08:04:40;;;;;;;6.93;6.43;;;36.10;1.00;;;;;;5052602;28;20201;-70
2023/06/11 08:07:06;;;;;;;7.00;6.60;;;35.90;1.00;;;;;;5052419;28;20438;-70
2023/06/11 08:09:35;;;;;;;8.63;7.93;;;36.20;1.00;;;;;;5053722;28;20555;-70
2023/06/11 08:12:01;;;;;;;7.40;6.90;;;37.60;1.00;;;;;;5053390;28;20838;-70
2023/06/11 08:14:27;;;;;;;6.90;6.50;;;38.90;1.00;;;;;;5054011;28;20459;-70
2023/06/11 08:16:52;;;;;;;7.50;7.00;;;38.80;1.00;;;;;;5053772;28;20457;-70
2023/06/11 08:19:18;;;;;;;6.53;6.13;;;39.20;1.00;;;;;;5053484;28;20206;-70
2023/06/11 08:21:43;;;;;;;6.80;6.23;;;40.10;1.00;;;;;;5052114;28;20178;-70
2023/06/11 08:24:10;;;;;;;7.03;6.57;;;39.70;1.00;;;;;;5053313;28;20289;-70
2023/06/11 08:26:36;;;;;;;6.53;6.13;;;39.50;1.00;;;;;;5053442;28;20214;-70
2023/06/11 08:29:01;;;;;;;6.57;6.07;;;40.00;1.00;;;;;;5053306;28;20946;-70
2023/06/11 08:31:27;;;;;;;6.40;6.00;;;38.60;1.00;;;;;;5053260;28;20178;-70
2023/06/11 08:33:53;;;;;;;7.07;6.47;;;37.60;1.00;;;;;;5053194;28;20178;-69
2023/06/11 08:36:19;;;;;;;7.70;7.07;;;38.60;1.00;;;;;;5053340;28;20222;-70
2023/06/11 08:38:45;;;;;;;6.60;6.20;;;38.30;1.00;;;;;;5053149;28;20202;-70
2023/06/11 08:41:11;;;;;;;6.63;6.23;;;37.30;1.00;;;;;;5053017;28;20448;-70
2023/06/11 08:43:38;;;;;;;6.47;6.00;;;36.80;1.00;;;;;;5051981;28;20207;-70
2023/06/11 08:46:03;;;;;;;8.07;7.50;;;35.80;1.00;;;;;;5053060;28;20206;-70
2023/06/11 08:48:32;;;;;;;7.20;6.70;;;36.10;1.00;;;;;;5053098;28;20554;-70
2023/06/11 08:51:01;;;;;;;7.20;6.63;;;36.00;1.00;;;;;;5052977;28;20182;-71
2023/06/11 08:53:27;;;;;;;7.23;6.67;;;36.70;1.00;;;;;;5052545;28;20409;-70
2023/06/11 08:55:54;;;;;;;7.07;6.57;;;37.80;1.00;;;;;;5052849;28;20984;-70
2023/06/11 08:58:20;;;;;;;6.80;6.30;;;38.60;1.00;;;;;;5051294;28;20425;-70
2023/06/11 09:00:46;;;;;;;7.63;7.23;;;38.90;1.00;;;;;;5052720;28;20428;-70
2023/06/11 09:03:11;;;;;;;7.83;7.33;;;37.80;1.00;;;;;;5052428;28;20452;-70
2023/06/11 09:05:38;;;;;;;6.97;6.57;;;36.80;1.00;;;;;;5052629;28;20174;-70
2023/06/11 09:08:09;;;;;;;7.53;6.93;;;36.40;1.00;;;;;;5034441;28;20629;-70
2023/06/11 09:10:49;;;;;;;7.53;6.93;;;36.10;1.00;;;;;;5032655;28;20433;-70
2023/06/11 09:13:23;;;;;;;7.60;7.10;;;36.20;1.00;;;;;;5032585;28;20418;-70
2023/06/11 09:15:49;;;;;;;7.40;6.80;;;35.30;1.00;;;;;;5032732;28;20430;-71
2023/06/11 09:18:42;;;;;;;8.30;7.70;;;32.70;1.00;;;;;;5032750;28;20789;-71
2023/06/11 09:21:11;;;;;;;6.93;6.30;;;30.90;1.00;;;;;;5030382;28;20777;-70
2023/06/11 09:23:38;;;;;;;6.90;6.37;;;29.40;1.00;;;;;;5032194;28;20497;-69
2023/06/11 09:26:03;;;;;;;7.27;6.77;;;28.40;1.00;;;;;;5032312;28;20804;-69
2023/06/11 09:28:32;;;;;;;8.10;6.63;;;27.50;1.00;;;;;;5032446;28;20501;-69
2023/06/11 09:30:59;;;;;;;7.77;7.20;;;26.70;1.00;;;;;;5032388;28;20183;-69
2023/06/11 09:33:26;;;;;;;7.83;7.13;;;26.20;1.00;;;;;;5032089;28;20425;-69
2023/06/11 09:35:52;;;;;;;7.20;6.67;;;26.00;1.00;;;;;;5032401;28;20445;-69
2023/06/11 09:38:19;;;;;;;7.13;6.63;;;26.00;1.00;;;;;;5032324;28;20572;-69
2023/06/11 09:40:49;;;;;;;7.67;7.07;;;25.80;1.00;;;;;;5032199;28;20181;-69
2023/06/11 09:43:18;;;;;;;6.97;6.37;;;25.60;1.00;;;;;;5031895;28;20454;-69
2023/06/11 09:45:44;;;;;;;7.23;6.73;;;25.70;1.00;;;;;;5032032;28;20473;-69
2023/06/11 09:48:12;;;;;;;7.40;6.80;;;25.80;1.00;;;;;;5032283;28;20414;-70
2023/06/11 09:50:37;;;;;;;6.73;6.10;;;25.90;1.00;;;;;;5033211;28;20484;-69
2023/06/11 09:53:04;;;;;;;7.20;6.60;;;26.00;1.00;;;;;;5031935;28;20509;-69
2023/06/11 09:55:35;;;;;;;7.07;6.57;;;26.20;1.00;;;;;;5031756;28;20501;-70
2023/06/11 09:58:03;;;;;;;6.70;6.20;;;26.40;1.00;;;;;;5032024;28;20422;-70
2023/06/11 10:00:29;;;;;;;7.40;6.80;;;26.30;1.00;;;;;;5031886;28;20424;-70
2023/06/11 10:02:56;;;;;;;7.90;7.20;;;26.20;1.00;;;;;;5031612;28;20899;-69
2023/06/11 10:05:21;;;;;;;8.17;7.43;;;26.50;1.00;;;;;;5031882;28;20460;-69
2023/06/11 10:08:13;;;;;;;9.03;8.20;;;26.90;1.00;;;;;;5047804;28;21020;-70
2023/06/11 10:10:41;;;;;;;7.80;7.13;;;26.90;1.00;;;;;;5051712;28;20542;-69
2023/06/11 10:13:07;;;;;;;7.73;7.13;;;26.90;1.00;;;;;;5051588;28;20499;-68
2023/06/11 10:15:35;;;;;;;7.60;7.00;;;26.80;1.00;;;;;;5051790;28;20910;-70
2023/06/11 10:18:01;;;;;;;7.00;6.40;;;26.80;1.00;;;;;;5051784;28;20178;-69
2023/06/11 10:20:35;;;;;;;7.23;6.67;;;27.20;1.00;;;;;;5051663;28;20409;-70
2023/06/11 10:23:11;;;;;;;7.70;7.03;;;27.60;1.00;;;;;;5051464;28;20453;-70
2023/06/11 10:25:40;;;;;;;6.17;5.60;;;27.60;1.00;;;;;;5046900;28;20448;-70
2023/06/11 10:28:08;;;;;;;6.63;5.97;;;27.40;1.00;;;;;;5036468;28;20442;-68
2023/06/11 10:30:34;;;;;;;7.00;6.50;;;27.00;1.00;;;;;;5033594;28;20417;-69
2023/06/11 10:33:00;;;;;;;8.27;7.60;;;27.00;1.00;;;;;;5051309;28;20409;-69
2023/06/11 10:35:32;;;;;;;7.70;7.03;;;26.60;1.00;;;;;;5051395;28;20417;-69
2023/06/11 10:38:06;;;;;;;7.23;6.73;;;26.50;1.00;;;;;;5032983;23;20813;-69
2023/06/11 10:40:37;;;;;;;7.37;6.80;;;26.40;1.00;;;;;;5011196;28;20498;-69
2023/06/11 10:43:19;;;;;;;8.63;7.90;;;26.60;1.00;;;;;;5011060;28;20925;-70
2023/06/11 10:45:45;;;;;;;9.00;6.93;;;26.80;1.00;;;;;;5010837;28;20402;-70
2023/06/11 10:48:11;;;;;;;6.93;6.43;;;26.90;1.00;;;;;;5030014;28;20437;-70
2023/06/11 10:50:37;;;;;;;6.27;5.83;;;26.80;1.00;;;;;;5032077;28;20559;-70
2023/06/11 10:53:13;;;;;;;6.70;6.10;;;26.80;1.00;;;;;;5030659;28;20835;-70
2023/06/11 10:55:42;;;;;;;6.23;5.77;;;26.80;1.00;;;;;;5030665;28;20413;-70
2023/06/11 10:58:09;;;;;;;6.83;6.33;;;26.90;1.00;;;;;;5029211;28;20433;-71
2023/06/11 11:00:37;;;;;;;6.50;6.00;;;27.10;1.00;;;;;;5032453;28;20486;-70
2023/06/11 11:03:04;;;;;;;6.40;5.80;;;27.30;1.00;;;;;;5031225;28;20998;-70
2023/06/11 11:05:30;;;;;;;5.80;5.40;;;27.60;1.00;;;;;;5030732;28;20427;-74
2023/06/11 11:07:59;;;;;;;7.93;7.23;;;27.80;1.00;;;;;;5033326;28;20973;-70
2023/06/11 11:10:26;;;;;;;6.30;5.90;;;27.70;1.00;;;;;;5034048;28;20779;-69
2023/06/11 11:12:53;;;;;;;7.10;6.57;;;27.60;1.00;;;;;;5033514;28;20895;-68
2023/06/11 11:15:19;;;;;;;6.73;6.20;;;27.60;1.00;;;;;;5033714;28;20410;-68
2023/06/11 11:17:45;;;;;;;7.13;6.73;;;27.50;1.00;;;;;;5034079;28;20559;-68
2023/06/11 11:20:13;;;;;;;7.70;7.20;;;27.30;1.00;;;;;;5024653;28;20849;-68
2023/06/11 11:22:39;;;;;;;8.17;7.37;;;27.10;1.00;;;;;;5013633;28;20876;-68
2023/06/11 11:25:06;;;;;;;6.90;6.40;;;27.00;1.00;;;;;;5014279;28;20502;-68
2023/06/11 11:27:33;;;;;;;6.77;6.27;;;27.00;1.00;;;;;;5013745;28;20203;-69
2023/06/11 11:30:02;;;;;;;8.40;6.93;;;27.00;1.00;;;;;;5013967;28;20755;-67
2023/06/11 11:32:34;;;;;;;6.23;5.83;;;26.90;1.00;;;;;;5013620;28;20442;-68
2023/06/11 11:35:02;;;;;;;10.03;7.27;;;27.20;1.00;;;;;;5012424;28;21002;-67
2023/06/11 11:37:28;;;;;;;6.83;6.30;;;27.30;1.00;;;;;;5013720;28;20459;-68
2023/06/11 11:39:54;;;;;;;7.50;6.43;;;27.10;1.00;;;;;;5013855;28;20430;-68
2023/06/11 11:42:22;;;;;;;6.97;6.37;;;26.90;1.00;;;;;;5013090;28;20423;-68
2023/06/11 11:44:50;;;;;;;6.70;6.20;;;26.80;1.00;;;;;;5013831;28;20451;-67
2023/06/11 11:47:18;;;;;;;7.00;6.37;;;26.80;1.00;;;;;;5013485;28;20435;-68
2023/06/11 11:49:54;;;;;;;7.07;6.53;;;26.80;1.00;;;;;;5013362;28;20760;-68
2023/06/11 11:52:23;;;;;;;6.80;6.30;;;26.80;1.00;;;;;;5013074;28;20413;-67
2023/06/11 11:54:49;;;;;;;8.30;7.00;;;27.10;1.00;;;;;;5013181;28;20403;-68
2023/06/11 11:57:21;;;;;;;7.17;6.57;;;27.10;1.00;;;;;;5013132;28;20799;-69
2023/06/11 11:59:51;;;;;;;7.90;7.30;;;27.10;1.00;;;;;;5013445;28;20411;-68
2023/06/11 12:02:16;;;;;;;7.37;6.67;;;27.20;1.00;;;;;;5012747;28;20447;-68
2023/06/11 12:04:46;;;;;;;6.57;6.10;;;27.30;1.00;;;;;;5011816;28;20453;-68
2023/06/11 12:07:14;;;;;;;7.10;6.50;;;27.60;1.00;;;;;;5012785;28;20670;-68
2023/06/11 12:09:40;;;;;;;6.90;6.40;;;27.80;1.00;;;;;;5013022;28;20522;-68
2023/06/11 12:12:07;;;;;;;6.43;5.93;;;27.90;1.00;;;;;;5012758;28;20467;-66
2023/06/11 12:14:37;;;;;;;8.13;7.43;;;27.80;1.00;;;;;;5012902;28;20423;-70
2023/06/11 12:17:03;;;;;;;6.30;5.70;;;27.80;1.00;;;;;;5012728;28;20435;-70
2023/06/11 12:19:31;;;;;;;7.70;7.10;;;27.60;1.00;;;;;;5011625;28;20407;-69
2023/06/11 12:21:56;;;;;;;6.87;6.27;;;27.70;1.00;;;;;;5012639;28;20506;-70
2023/06/11 12:24:22;;;;;;;6.73;6.23;;;27.80;1.00;;;;;;5012776;28;20549;-69
2023/06/11 12:26:49;;;;;;;9.13;7.50;;;27.80;1.00;;;;;;5011504;28;20655;-69
2023/06/11 12:29:15;;;;;;;6.60;6.13;;;27.70;1.00;;;;;;5012757;28;20447;-69
2023/06/11 12:31:41;;;;;;;6.80;6.30;;;27.70;1.00;;;;;;5011156;28;20415;-70
2023/06/11 12:34:09;;;;;;;7.50;6.93;;;27.80;1.00;;;;;;5011547;28;20431;-70
2023/06/11 12:36:36;;;;;;;6.70;6.20;;;27.90;1.00;;;;;;5012422;28;20945;-69
2023/06/11 12:39:04;;;;;;;6.77;6.23;;;27.90;1.00;;;;;;5012901;28;20485;-69
2023/06/11 12:41:31;;;;;;;6.80;6.30;;;27.90;1.00;;;;;;5012527;28;20407;-70
2023/06/11 12:44:02;;;;;;;6.60;6.00;;;28.00;1.00;;;;;;5012431;28;20470;-70
2023/06/11 12:46:28;;;;;;;6.23;5.83;;;28.00;1.00;;;;;;5012580;28;20441;-68
2023/06/11 12:48:54;;;;;;;6.23;5.73;;;27.90;1.00;;;;;;5012384;28;20494;-68
2023/06/11 12:51:21;;;;;;;6.60;6.10;;;27.80;1.00;;;;;;5012247;28;20461;-69